EGPN/DND METAR and TAF weather

Enter ICAO airport designator
Station Type Date Time Source
EGPN METAR 2020/04/03 19:50 UTC NOAA

EGPN 031950Z 26003KT 9999 FEW040 06/04 Q1012


Station Type Date Time Source
EGPN Decoded METAR 2020/04/03 19:50 UTC NOAA

Dundee / Riverside, United Kingdom (EGPN) 56-27N 003-01W
Apr 03, 2020 - 03:50 PM EDT / 2020.04.03 1950 UTC
Wind: from the W (260 degrees) at 3 MPH (3 KT):0
Visibility: greater than 7 mile(s):0
Sky conditions: mostly clear
Temperature: 42 F (6 C)
Dew Point: 39 F (4 C)
Relative Humidity: 86%
Pressure (altimeter): 29.88 in. Hg (1012 hPa)
ob: EGPN 031950Z 26003KT 9999 FEW040 06/04 Q1012
cycle: 20

Station Type Date Time Source
EGPN TAF 2019/01/15 18:56 UTC NOAA

TAF EGPN 151750Z 1518/1621 CNL

Example: see airport list